Napo, China
Current Conditions -  °F | °C
As of 6:00 PM on Friday 24 Oct 2014 (Local Time) from ZGNN Reporting Station
Clear Clear  
Wind Chill: 79°   Ceiling: Unl
Heat Index: 81°   Visibility: 6mi
Dew Point: 68°   Wind: 4mph
Humidity: 69%   Direction: 130°SE
Pressure: 29.94"   Gusts: NA
Location:  23.3°N, 105.95°E
Report Text: ZGNN 241000Z 13002MPS 110V180 CAVOK 26/20 Q1014 NOSIG
Loading
Personal Weather Stations






























Interactive Weather Map
Tropical Storm Tracking
New forecast layout! Learn more

10-Day Weather Forecast

Advertisements
Track Severe Weather on mobile